Time,TemperatureF,DewpointF,PressureIn,WindDirection,WindDirectionDegrees,WindSpeedMPH,WindSpeedGustMPH,Humidity,HourlyPrecipIn,Conditions,Clouds,dailyrainin,SoftwareType,DateUTC
2013-01-03 01:02:00,34.0,21.0,-100.00,East,100,10.0,17.0,58,-99.99,,,-99.99,,2013-01-03 09:02:00,
2013-01-03 01:12:00,34.0,21.0,-100.00,East,100,10.0,17.0,58,-99.99,,,-99.99,,2013-01-03 09:12:00,
2013-01-03 03:02:00,34.0,20.0,-100.00,ESE,115,12.0,18.0,56,-99.99,,,-99.99,,2013-01-03 11:02:00,
2013-01-03 03:12:00,34.0,20.0,-100.00,ESE,115,12.0,18.0,56,-99.99,,,-99.99,,2013-01-03 11:12:00,
2013-01-03 05:02:00,33.0,20.0,-100.00,ESE,105,6.0,14.0,58,-99.99,,,-99.99,,2013-01-03 13:02:00,
2013-01-03 05:12:00,33.0,20.0,-100.00,ESE,105,6.0,14.0,58,-99.99,,,-99.99,,2013-01-03 13:12:00,
2013-01-03 07:03:00,33.0,20.0,-100.00,ESE,105,9.0,21.0,58,-99.99,,,-99.99,,2013-01-03 15:03:00,
2013-01-03 07:12:00,33.0,20.0,-100.00,ESE,105,9.0,21.0,58,-99.99,,,-99.99,,2013-01-03 15:12:00,
2013-01-03 09:03:00,31.0,20.0,-100.00,ESE,110,9.0,14.0,63,-99.99,,,-99.99,,2013-01-03 17:03:00,
2013-01-03 09:12:00,31.0,20.0,-100.00,ESE,110,9.0,14.0,63,-99.99,,,-99.99,,2013-01-03 17:12:00,
2013-01-03 11:03:00,36.0,22.0,-100.00,SE,130,8.0,18.0,56,-99.99,,,-99.99,,2013-01-03 19:03:00,
2013-01-03 11:12:00,36.0,22.0,-100.00,SE,130,8.0,18.0,56,-99.99,,,-99.99,,2013-01-03 19:12:00,
2013-01-03 13:02:00,37.0,23.0,-100.00,ESE,105,7.0,16.0,56,-99.99,,,-99.99,,2013-01-03 21:02:00,
2013-01-03 13:12:00,37.0,23.0,-100.00,ESE,105,7.0,16.0,56,-99.99,,,-99.99,,2013-01-03 21:12:00,
2013-01-03 15:02:00,38.0,23.0,-100.00,East,90,9.0,18.0,54,-99.99,,,-99.99,,2013-01-03 23:02:00,
2013-01-03 15:12:00,38.0,23.0,-100.00,East,90,9.0,18.0,54,-99.99,,,-99.99,,2013-01-03 23:12:00,
2013-01-03 17:02:00,37.0,24.0,-100.00,ESE,105,7.0,14.0,58,-99.99,,,-99.99,,2013-01-04 01:02:00,
2013-01-03 17:12:00,37.0,24.0,-100.00,ESE,105,7.0,14.0,58,-99.99,,,-99.99,,2013-01-04 01:12:00,
2013-01-03 19:02:00,36.0,31.0,-100.00,East,80,3.0,10.0,81,-99.99,,,-99.99,,2013-01-04 03:02:00,
2013-01-03 19:12:00,36.0,31.0,-100.00,East,80,3.0,10.0,81,-99.99,,,-99.99,,2013-01-04 03:12:00,
2013-01-03 21:03:00,36.0,33.0,-100.00,ENE,65,7.0,16.0,88,-99.99,,,-99.99,,2013-01-04 05:03:00,
2013-01-03 21:12:00,36.0,33.0,-100.00,ENE,65,7.0,16.0,88,-99.99,,,-99.99,,2013-01-04 05:12:00,